European Highlander — C6SN6 — position and weather

sailwx.info

Track history (hours):
 
Tides and Currents Weather Stations Pressure Air Temp Water Temp Dewpoint Dewpoint Depression Visibility Wind Speed Wind Dir Waves Ship Positions

European Highlander

Operator: P&O Irish Sea Ltd

Last reported at 2017-Oct-20 19:31 UTC. Time now 2017-Oct-20 19:51 UTC.
Position N 55°01' W 005°13'.

Length 161 m; draft 5.4 m.

Type: Passenger vessel. MMSI: 311404000.

Date/timePositionNaut miles runAvg speedWind from/ knotsBaromVisibWave heightAir tempDewpointWater temp
2017-Oct-20 19:31N 55°01' W 005°13'612.5
2017-Oct-20 19:00N 54°59' W 005°02'1 2.3
2017-Oct-20 18:28N 54°58' W 005°01'0 0.0
2017-Oct-20 17:58N 54°58' W 005°01'0 0.0
2017-Oct-20 17:28N 54°58' W 005°01'5 8.6
2017-Oct-20 16:54N 55°02' W 005°06'819.6
2017-Oct-20 16:31N 54°59' W 005°18'1020.9
2017-Oct-20 16:01N 54°55' W 005°35'816.2
2017-Oct-20 15:31N 54°51' W 005°48'0 0.2
2017-Oct-20 15:00N 54°51' W 005°48'0 0.0
2017-Oct-20 14:28N 54°51' W 005°48'1515.2
2017-Oct-20 13:31N 54°58' W 005°26'917.5
2017-Oct-20 13:01N 55°01' W 005°11'713.2
2017-Oct-20 12:29N 54°58' W 005°01'0 0.0
2017-Oct-20 12:00N 54°58' W 005°01'0 0.0
2017-Oct-20 11:30N 54°58' W 005°01'5 9.7
2017-Oct-20 11:00N 55°01' W 005°07'917.9
2017-Oct-20 10:30N 54°58' W 005°21'918.1
2017-Oct-20 10:00N 54°54' W 005°35'815.9
2017-Oct-20 09:30N 54°51' W 005°48'0 0.1
2017-Oct-20 08:55N 54°51' W 005°48'0 0.0
2017-Oct-20 08:30N 54°51' W 005°48'612.9
2017-Oct-20 08:01N 54°54' W 005°38'815.7
2017-Oct-20 07:31N 54°58' W 005°26'816.4
2017-Oct-20 07:00N 55°01' W 005°13'713.4
2017-Oct-20 06:30N 54°59' W 005°02'1 2.6
2017-Oct-20 05:58N 54°58' W 005°01'0 0.0
2017-Oct-20 05:25N 54°58' W 005°01'0 0.0
2017-Oct-20 04:57N 54°58' W 005°01'5 9.4
2017-Oct-20 04:26N 55°02' W 005°06'717.6
2017-Oct-20 04:01N 54°59' W 005°18'918.3
2017-Oct-20 03:31N 54°55' W 005°33'917.7
2017-Oct-20 03:00N 54°52' W 005°47'1 1.9
2017-Oct-20 02:28N 54°51' W 005°48'0 0.0
2017-Oct-20 01:58N 54°51' W 005°48'0 0.0
2017-Oct-20 01:28N 54°51' W 005°48'0 0.0
2017-Oct-20 00:58N 54°51' W 005°48'4 8.8
2017-Oct-20 00:30N 54°54' W 005°43'917.7
2017-Oct-20 00:00N 54°57' W 005°29'917.5
2017-Oct-19 23:30N 55°01' W 005°15'714.1
2017-Oct-19 23:00N 54°59' W 005°03'2 2.0
2017-Oct-19 22:11N 54°58' W 005°01'0 0.0
2017-Oct-19 21:41N 54°58' W 005°01'0 0.0
2017-Oct-19 21:17N 54°58' W 005°01'0 0.0
2017-Oct-19 21:00N 54°58' W 005°01'5 9.4
2017-Oct-19 20:28N 55°01' W 005°06'817.0
2017-Oct-19 20:00N 54°59' W 005°19'918.0
2017-Oct-19 19:30N 54°55' W 005°34'917.6
2017-Oct-19 19:00N 54°51' W 005°48'1 1.4
2017-Oct-19 18:30N 54°51' W 005°48'0 0.0
2017-Oct-19 18:00N 54°51' W 005°48'0 0.0
2017-Oct-19 17:30N 54°51' W 005°48'2 4.2
2017-Oct-19 17:00N 54°52' W 005°45'1020.0
2017-Oct-19 16:30N 54°57' W 005°30'1020.4
2017-Oct-19 16:00N 55°01' W 005°14'815.6
2017-Oct-19 15:30N 54°58' W 005°01'0 0.4
2017-Oct-19 15:00N 54°58' W 005°01'0 0.0
2017-Oct-19 14:30N 54°58' W 005°01'5 9.6
2017-Oct-19 14:00N 55°02' W 005°06'1019.8
2017-Oct-19 13:30N 54°58' W 005°22'816.3
2017-Oct-19 13:00N 54°55' W 005°35'816.0
2017-Oct-19 12:30N 54°51' W 005°48'1 1.1
2017-Oct-19 12:00N 54°51' W 005°48'0 0.0
2017-Oct-19 11:30N 54°51' W 005°48'4 7.7
2017-Oct-19 11:00N 54°53' W 005°42'817.0
2017-Oct-19 10:30N 54°57' W 005°29'816.7
2017-Oct-19 10:00N 55°01' W 005°16'714.5
2017-Oct-19 09:30N 54°59' W 005°03'2 3.7
2017-Oct-19 08:54N 54°58' W 005°01'0 0.0
2017-Oct-19 08:30N 54°58' W 005°01'5 8.5
2017-Oct-19 07:55N 55°01' W 005°07'716.6
2017-Oct-19 07:30N 54°59' W 005°18'918.0
2017-Oct-19 07:00N 54°55' W 005°32'918.6
2017-Oct-19 06:31N 54°52' W 005°47'1 2.3
2017-Oct-19 05:58N 54°51' W 005°48'0 0.0
2017-Oct-19 05:28N 54°51' W 005°48'0 0.0
2017-Oct-19 05:00N 54°51' W 005°48'5 9.5
2017-Oct-19 04:30N 54°53' W 005°41'1019.7
2017-Oct-19 04:00N 54°58' W 005°26'1020.0
2017-Oct-19 03:30N 55°02' W 005°10'612.6
2017-Oct-19 03:00N 54°58' W 005°01'0 0.0
2017-Oct-19 02:24N 54°58' W 005°01'0 0.0
2017-Oct-19 01:57N 54°58' W 005°01'0 0.0
2017-Oct-19 01:27N 54°58' W 005°01'0 0.0
2017-Oct-19 01:00N 54°58' W 005°01'5 8.6
2017-Oct-19 00:25N 55°02' W 005°06'820.3
2017-Oct-19 00:00N 54°58' W 005°20'1019.8
2017-Oct-18 23:30N 54°54' W 005°36'815.3
2017-Oct-18 23:00N 54°51' W 005°48'0 0.2
2017-Oct-18 22:30N 54°51' W 005°48'0 0.0
2017-Oct-18 22:00N 54°51' W 005°48'0 0.0
2017-Oct-18 21:30N 54°51' W 005°48'0 0.1
2017-Oct-18 21:00N 54°51' W 005°48'713.9
2017-Oct-18 20:30N 54°55' W 005°37'917.7
2017-Oct-18 20:00N 54°58' W 005°24'918.4
2017-Oct-18 19:30N 55°02' W 005°09'611.6
2017-Oct-18 19:00N 54°58' W 005°01'0 0.0
2017-Oct-18 18:30N 54°58' W 005°01'0 0.0
2017-Oct-18 18:00N 54°58' W 005°01'0 0.0
2017-Oct-18 17:30N 54°58' W 005°01'5 9.4
2017-Oct-18 16:59N 55°01' W 005°07'919.4
2017-Oct-18 16:30N 54°58' W 005°21'1020.6
2017-Oct-18 16:00N 54°54' W 005°38'713.3
2017-Oct-18 15:30N 54°51' W 005°48'0 0.0
2017-Oct-18 15:00N 54°51' W 005°48'5 4.8
2017-Oct-18 14:01N 54°54' W 005°41'917.6
2017-Oct-18 13:31N 54°57' W 005°27'816.9
2017-Oct-18 13:01N 55°01' W 005°14'714.6
2017-Oct-18 12:30N 54°58' W 005°02'1 1.9
2017-Oct-18 12:00N 54°58' W 005°01'0 0.0
2017-Oct-18 11:30N 54°58' W 005°01'611.3
2017-Oct-18 11:00N 55°01' W 005°08'918.2
2017-Oct-18 10:30N 54°58' W 005°22'1017.5
2017-Oct-18 09:58N 54°54' W 005°38'714.3
2017-Oct-18 09:31N 54°51' W 005°48'0 0.1
2017-Oct-18 08:59N 54°51' W 005°48'0 0.0
2017-Oct-18 08:30N 54°51' W 005°48'612.1
2017-Oct-18 08:00N 54°54' W 005°39'1121.5
2017-Oct-18 07:30N 54°59' W 005°22'1117.1
2017-Oct-18 06:52N 54°59' W 005°03'2 3.6
2017-Oct-18 06:19N 54°58' W 005°01'0 0.0
2017-Oct-18 05:58N 54°58' W 005°01'0 0.0
2017-Oct-18 05:28N 54°58' W 005°01'0 0.0
2017-Oct-18 04:58N 54°58' W 005°01'5 7.8
2017-Oct-18 04:20N 55°01' W 005°06'619.0
2017-Oct-18 04:01N 54°60' W 005°17'1121.9
2017-Oct-18 03:30N 54°55' W 005°34'918.0
2017-Oct-18 03:00N 54°51' W 005°48'0 0.2
2017-Oct-18 02:29N 54°51' W 005°48'0 0.0
2017-Oct-18 01:59N 54°51' W 005°48'0 0.0
2017-Oct-18 01:29N 54°51' W 005°48'0 0.0
2017-Oct-18 00:59N 54°51' W 005°48'5 9.6
2017-Oct-18 00:30N 54°54' W 005°41'917.9
2017-Oct-18 00:00N 54°58' W 005°28'917.2
2017-Oct-17 23:30N 55°01' W 005°14'713.8
2017-Oct-17 23:00N 54°59' W 005°02'1 2.4
2017-Oct-17 22:27N 54°58' W 005°01'0 0.0
2017-Oct-17 21:57N 54°58' W 005°01'0 0.0
2017-Oct-17 21:15N 54°58' W 005°01'0 0.0
2017-Oct-17 20:48N 54°58' W 005°01'511.1
2017-Oct-17 20:22N 55°01' W 005°06'719.3
2017-Oct-17 20:01N 54°59' W 005°17'1020.4
2017-Oct-17 19:31N 54°55' W 005°34'917.5
2017-Oct-17 19:00N 54°51' W 005°48'0 0.7
2017-Oct-17 18:28N 54°51' W 005°48'0 0.0
2017-Oct-17 17:58N 54°51' W 005°48'0 0.0
2017-Oct-17 17:29N 54°51' W 005°48'510.0
2017-Oct-17 17:01N 54°53' W 005°41'1019.5
2017-Oct-17 16:31N 54°58' W 005°26'1019.2
2017-Oct-17 16:01N 55°01' W 005°10'612.6
2017-Oct-17 15:30N 54°58' W 005°01'0 0.2
2017-Oct-17 14:56N 54°58' W 005°01'0 0.0
2017-Oct-17 14:08N 54°58' W 005°01'0 0.0
2017-Oct-17 13:59N 54°58' W 005°01'1 3.0
2017-Oct-17 13:30N 54°59' W 005°03'714.8
2017-Oct-17 13:00N 54°60' W 005°15'1121.5
2017-Oct-17 12:30N 54°55' W 005°32'1019.2
2017-Oct-17 12:00N 54°51' W 005°48'0 0.4
2017-Oct-17 11:25N 54°51' W 005°48'0 0.0
2017-Oct-17 10:58N 54°51' W 005°48'0 0.0
2017-Oct-17 10:25N 54°51' W 005°48'0 0.1
2017-Oct-17 10:00N 54°51' W 005°48'815.3
2017-Oct-17 09:31N 54°55' W 005°37'1120.2
2017-Oct-17 08:57N 55°01' W 005°20'1016.8
2017-Oct-17 08:21N 54°59' W 005°03'2 1.5
2017-Oct-17 07:09N 54°58' W 005°01'0 0.0
2017-Oct-17 06:57N 54°58' W 005°01'0 0.0
2017-Oct-17 06:30N 54°58' W 005°01'0 0.0
2017-Oct-17 05:57N 54°58' W 005°01'0 0.4
2017-Oct-17 05:30N 54°58' W 005°01'816.4
2017-Oct-17 05:01N 55°03' W 005°11'918.8
2017-Oct-17 04:30N 55°01' W 005°27'918.9
2017-Oct-17 04:00N 54°55' W 005°40'612.2
2017-Oct-17 03:30N 54°51' W 005°48'0 0.0
2017-Oct-17 02:58N 54°51' W 005°48'0 0.0
2017-Oct-17 02:25N 54°51' W 005°48'0 0.0
2017-Oct-17 01:55N 54°51' W 005°48'0 0.0
2017-Oct-17 01:28N 54°51' W 005°48'0 0.0
2017-Oct-17 00:58N 54°51' W 005°48'0 0.0
2017-Oct-17 00:28N 54°51' W 005°48'0 0.0
2017-Oct-16 23:58N 54°51' W 005°48'0 0.0
2017-Oct-16 23:28N 54°51' W 005°48'0 0.0
2017-Oct-16 22:58N 54°51' W 005°48'0 0.0
2017-Oct-16 22:28N 54°51' W 005°48'0 0.0
2017-Oct-16 21:58N 54°51' W 005°48'0 0.0
2017-Oct-16 21:28N 54°51' W 005°48'0 0.0
2017-Oct-16 20:58N 54°51' W 005°48'0 0.0
2017-Oct-16 20:28N 54°51' W 005°48'0 0.0
2017-Oct-16 19:58N 54°51' W 005°48'0 0.0
2017-Oct-16 19:28N 54°51' W 005°48'0 0.0
2017-Oct-16 18:58N 54°51' W 005°48'0 0.0
2017-Oct-16 18:28N 54°51' W 005°48'0 0.0
2017-Oct-16 17:58N 54°51' W 005°48'0 0.0
2017-Oct-16 17:04N 54°51' W 005°48'0 0.0
2017-Oct-16 16:58N 54°51' W 005°48'0 0.0
2017-Oct-16 16:28N 54°51' W 005°48'0 0.0
2017-Oct-16 15:58N 54°51' W 005°48'0 0.0
2017-Oct-16 15:28N 54°51' W 005°48'0 0.0
2017-Oct-16 14:49N 54°51' W 005°48'0 0.0
2017-Oct-16 13:53N 54°51' W 005°48'0 0.0
2017-Oct-16 13:30N 54°51' W 005°48'0 0.0
2017-Oct-16 13:00N 54°51' W 005°48'0 0.0
2017-Oct-16 12:30N 54°51' W 005°48'0 0.0
2017-Oct-16 12:00N 54°51' W 005°48'0 0.0
2017-Oct-16 11:30N 54°51' W 005°48'5 9.1
2017-Oct-16 11:01N 54°53' W 005°41'917.8
2017-Oct-16 10:30N 54°58' W 005°28'917.9
2017-Oct-16 10:00N 55°01' W 005°13'713.9
2017-Oct-16 09:30N 54°58' W 005°02'1 0.7
2017-Oct-16 08:24N 54°58' W 005°01'512.7
2017-Oct-16 08:00N 55°02' W 005°07'1019.2
2017-Oct-16 07:30N 54°58' W 005°22'917.2
2017-Oct-16 07:00N 54°54' W 005°36'815.4
2017-Oct-16 06:30N 54°51' W 005°48'0 0.2
2017-Oct-16 06:00N 54°51' W 005°48'0 0.0
2017-Oct-16 05:30N 54°51' W 005°48'0 0.0
2017-Oct-16 05:01N 54°51' W 005°48'4 7.1
2017-Oct-16 04:30N 54°53' W 005°43'917.7
2017-Oct-16 04:01N 54°57' W 005°29'917.9
2017-Oct-16 03:31N 55°00' W 005°15'713.7
2017-Oct-16 03:00N 54°59' W 005°03'2 3.1
2017-Oct-16 02:25N 54°58' W 005°01'0 0.0
2017-Oct-16 01:58N 54°58' W 005°01'0 0.0
2017-Oct-16 01:28N 54°58' W 005°01'0 0.0
2017-Oct-16 00:58N 54°58' W 005°01'0 0.0
2017-Oct-16 00:13N 54°58' W 005°01'0 0.4
2017-Oct-16 00:00N 54°58' W 005°01'612.5
2017-Oct-15 23:30N 55°01' W 005°10'1020.3
2017-Oct-15 23:01N 54°57' W 005°26'917.8
2017-Oct-15 22:30N 54°53' W 005°40'510.3
2017-Oct-15 22:00N 54°51' W 005°48'0 0.0
2017-Oct-15 21:31N 54°51' W 005°48'0 0.0
2017-Oct-15 21:00N 54°51' W 005°48'3 6.5
2017-Oct-15 20:30N 54°53' W 005°43'918.3
2017-Oct-15 20:00N 54°57' W 005°29'918.0
2017-Oct-15 19:30N 55°01' W 005°15'713.4
2017-Oct-15 19:00N 54°59' W 005°03'2 3.2
2017-Oct-15 18:23N 54°58' W 005°01'0 0.0
2017-Oct-15 17:27N 54°58' W 005°01'5 9.7
2017-Oct-15 16:57N 55°01' W 005°06'818.8
2017-Oct-15 16:30N 54°59' W 005°20'1019.8
2017-Oct-15 16:00N 54°55' W 005°36'815.8
2017-Oct-15 15:31N 54°51' W 005°48'0 0.1
2017-Oct-15 14:59N 54°51' W 005°48'0 0.0
2017-Oct-15 13:59N 54°51' W 005°48'4 9.1
2017-Oct-15 13:30N 54°53' W 005°42'917.2
2017-Oct-15 13:01N 54°58' W 005°29'817.0
2017-Oct-15 12:31N 55°01' W 005°15'714.3
2017-Oct-15 12:01N 54°59' W 005°03'2 3.4
2017-Oct-15 11:25N 54°58' W 005°01'0 0.0
2017-Oct-15 10:58N 54°58' W 005°01'0 0.0
2017-Oct-15 10:22N 54°58' W 005°01'0 0.0
2017-Oct-15 09:58N 54°58' W 005°01'0 0.0
2017-Oct-15 09:28N 54°58' W 005°01'0 0.0
2017-Oct-15 08:58N 54°58' W 005°01'0 0.0
2017-Oct-15 08:26N 54°58' W 005°01'5 9.2
2017-Oct-15 07:54N 55°02' W 005°06'819.9
2017-Oct-15 07:30N 54°59' W 005°19'1020.2
2017-Oct-15 07:00N 54°54' W 005°35'816.6
2017-Oct-15 06:30N 54°51' W 005°48'0 0.1
2017-Oct-15 05:58N 54°51' W 005°48'0 0.0
2017-Oct-15 05:28N 54°51' W 005°48'0 0.0
2017-Oct-15 04:58N 54°51' W 005°48'0 0.0
2017-Oct-15 04:28N 54°51' W 005°48'0 0.0
2017-Oct-15 03:55N 54°51' W 005°48'0 0.0
2017-Oct-15 03:28N 54°51' W 005°48'0 0.0
2017-Oct-15 02:58N 54°51' W 005°48'0 0.0
2017-Oct-15 02:28N 54°51' W 005°48'0 0.0
2017-Oct-15 01:58N 54°51' W 005°48'0 0.0
2017-Oct-15 01:28N 54°51' W 005°48'0 0.0
2017-Oct-15 00:58N 54°51' W 005°48'0 0.0
2017-Oct-15 00:28N 54°51' W 005°48'0 0.0
2017-Oct-14 23:55N 54°51' W 005°48'0 0.0
2017-Oct-14 23:28N 54°51' W 005°48'0 0.0
2017-Oct-14 22:58N 54°51' W 005°48'0 0.0
2017-Oct-14 22:28N 54°51' W 005°48'0 0.0
2017-Oct-14 21:58N 54°51' W 005°48'0 0.0
2017-Oct-14 21:28N 54°51' W 005°48'0 0.0
2017-Oct-14 20:58N 54°51' W 005°48'4 8.3
2017-Oct-14 20:30N 54°53' W 005°43'917.1
2017-Oct-14 20:00N 54°57' W 005°29'816.8
2017-Oct-14 19:31N 55°00' W 005°16'814.1
2017-Oct-14 18:58N 54°59' W 005°03'2 3.1
2017-Oct-14 18:26N 54°58' W 005°01'0 0.0
2017-Oct-14 17:59N 54°58' W 005°01'0 0.0
2017-Oct-14 17:29N 54°58' W 005°01'5 9.7
2017-Oct-14 16:58N 55°02' W 005°06'817.2
2017-Oct-14 16:30N 54°58' W 005°19'918.1
2017-Oct-14 16:00N 54°54' W 005°33'917.6
2017-Oct-14 15:30N 54°51' W 005°48'0 0.8
2017-Oct-14 14:59N 54°51' W 005°48'0 0.0
2017-Oct-14 14:30N 54°51' W 005°48'612.7
2017-Oct-14 14:00N 54°54' W 005°38'917.7
2017-Oct-14 13:30N 54°58' W 005°25'917.8
2017-Oct-14 13:00N 55°01' W 005°10'612.2
2017-Oct-14 12:31N 54°58' W 005°01'0 0.8
2017-Oct-14 12:00N 54°58' W 005°01'0 0.0
2017-Oct-14 11:31N 54°58' W 005°01'5 9.0
2017-Oct-14 10:59N 55°01' W 005°06'918.1
2017-Oct-14 10:31N 54°58' W 005°20'918.2
2017-Oct-14 10:00N 54°54' W 005°34'817.0
2017-Oct-14 09:30N 54°51' W 005°48'0 0.2
2017-Oct-14 08:51N 54°51' W 005°48'0 0.0
2017-Oct-14 08:30N 54°51' W 005°48'611.2
2017-Oct-14 08:00N 54°54' W 005°40'917.8
2017-Oct-14 07:30N 54°58' W 005°26'917.4
2017-Oct-14 07:00N 55°01' W 005°12'713.9
2017-Oct-14 06:30N 54°58' W 005°01'0 0.5
2017-Oct-14 05:59N 54°58' W 005°01'0 0.0
2017-Oct-14 05:29N 54°58' W 005°01'0 0.1
2017-Oct-14 05:00N 54°58' W 005°01'612.0
2017-Oct-14 04:31N 55°01' W 005°09'917.6
2017-Oct-14 04:00N 54°58' W 005°23'918.6
2017-Oct-14 03:30N 54°54' W 005°37'713.3
2017-Oct-14 03:01N 54°51' W 005°48'0 0.0
2017-Oct-14 02:28N 54°51' W 005°48'0 0.0
2017-Oct-14 01:58N 54°51' W 005°48'0 0.0
2017-Oct-14 01:25N 54°51' W 005°48'0 0.0
2017-Oct-14 00:59N 54°51' W 005°48'4 8.6
2017-Oct-14 00:31N 54°53' W 005°42'917.4
2017-Oct-14 00:00N 54°57' W 005°29'917.2
2017-Oct-13 23:30N 55°01' W 005°15'713.9
2017-Oct-13 23:00N 54°59' W 005°03'2 3.4
2017-Oct-13 22:30N 54°58' W 005°01'0 0.0
2017-Oct-13 22:00N 54°58' W 005°01'0 0.0
2017-Oct-13 21:30N 54°58' W 005°01'0 0.0
2017-Oct-13 20:55N 54°58' W 005°01'5 9.3
2017-Oct-13 20:23N 55°02' W 005°06'718.2
2017-Oct-13 20:00N 54°59' W 005°18'917.9
2017-Oct-13 19:30N 54°55' W 005°32'918.1
2017-Oct-13 19:00N 54°52' W 005°47'1 2.7
2017-Oct-13 18:28N 54°51' W 005°48'0 0.0
2017-Oct-13 17:58N 54°51' W 005°48'0 0.0
2017-Oct-13 17:28N 54°51' W 005°48'1 3.2
2017-Oct-13 17:00N 54°52' W 005°47'1019.5
2017-Oct-13 16:31N 54°56' W 005°31'1019.7
2017-Oct-13 16:01N 55°00' W 005°16'815.1
2017-Oct-13 15:30N 54°59' W 005°03'2 3.1
2017-Oct-13 14:58N 54°58' W 005°01'0 0.0
2017-Oct-13 14:28N 54°58' W 005°01'1 2.3
2017-Oct-13 14:01N 54°59' W 005°02'714.1
2017-Oct-13 13:30N 54°60' W 005°14'1020.3
2017-Oct-13 13:00N 54°56' W 005°30'1020.8
2017-Oct-13 12:30N 54°52' W 005°47'1 2.0
2017-Oct-13 11:58N 54°51' W 005°48'0 0.0
2017-Oct-13 11:28N 54°51' W 005°48'4 9.5
2017-Oct-13 11:00N 54°53' W 005°41'1019.4
2017-Oct-13 10:30N 54°58' W 005°26'1019.2
2017-Oct-13 10:00N 55°01' W 005°11'713.8
2017-Oct-13 09:30N 54°58' W 005°01'0 0.0
2017-Oct-13 09:00N 54°58' W 005°01'0 0.0
2017-Oct-13 08:26N 54°58' W 005°01'510.4
2017-Oct-13 07:56N 55°02' W 005°07'818.5
2017-Oct-13 07:30N 54°59' W 005°20'917.5
2017-Oct-13 07:00N 54°55' W 005°33'917.4
2017-Oct-13 06:30N 54°52' W 005°47'1 1.8
2017-Oct-13 05:59N 54°51' W 005°48'0 0.0
2017-Oct-13 05:29N 54°51' W 005°48'0 0.0
2017-Oct-13 05:00N 54°51' W 005°48'510.7
2017-Oct-13 04:30N 54°54' W 005°40'918.8
2017-Oct-13 04:00N 54°58' W 005°25'1018.9
2017-Oct-13 03:30N 55°02' W 005°10'712.6
2017-Oct-13 02:59N 54°58' W 005°01'0 0.0
2017-Oct-13 02:12N 54°58' W 005°01'0 0.0
2017-Oct-13 02:00N 54°58' W 005°01'0 0.0
2017-Oct-13 01:30N 54°58' W 005°01'0 0.0
2017-Oct-13 01:00N 54°58' W 005°01'5 8.6
2017-Oct-13 00:26N 55°02' W 005°07'717.1
2017-Oct-13 00:00N 54°59' W 005°18'1020.4
2017-Oct-12 23:30N 54°55' W 005°34'917.1
2017-Oct-12 23:01N 54°51' W 005°48'0 0.2
2017-Oct-12 22:30N 54°51' W 005°48'0 0.0
2017-Oct-12 22:00N 54°51' W 005°48'0 0.0
2017-Oct-12 21:30N 54°51' W 005°48'0 0.3
2017-Oct-12 21:01N 54°51' W 005°48'715.0
2017-Oct-12 20:31N 54°56' W 005°38'815.1
2017-Oct-12 20:00N 54°59' W 005°26'816.3
2017-Oct-12 19:30N 55°01' W 005°12'612.9
2017-Oct-12 19:00N 54°58' W 005°02'1 1.8
2017-Oct-12 18:29N 54°58' W 005°01'0 0.0
2017-Oct-12 17:41N 54°58' W 005°01'0 0.0
2017-Oct-12 17:25N 54°58' W 005°01'510.9
2017-Oct-12 16:55N 55°02' W 005°08'718.1
2017-Oct-12 16:31N 54°59' W 005°19'918.0
2017-Oct-12 16:00N 54°55' W 005°34'917.5
2017-Oct-12 15:30N 54°51' W 005°48'0 0.7
2017-Oct-12 14:59N 54°51' W 005°48'0 0.0
2017-Oct-12 14:30N 54°51' W 005°48'510.7
2017-Oct-12 14:00N 54°54' W 005°40'917.3
2017-Oct-12 13:30N 54°59' W 005°28'816.3
2017-Oct-12 13:00N 55°01' W 005°14'714.3
2017-Oct-12 12:30N 54°59' W 005°03'1 3.0
2017-Oct-12 12:00N 54°58' W 005°01'0 0.0
2017-Oct-12 11:30N 54°58' W 005°01'510.4
2017-Oct-12 11:00N 55°02' W 005°07'918.0
2017-Oct-12 10:30N 54°58' W 005°21'918.8
2017-Oct-12 10:00N 54°54' W 005°37'714.3
2017-Oct-12 09:30N 54°51' W 005°48'0 0.1
2017-Oct-12 08:55N 54°51' W 005°48'0 0.0
2017-Oct-12 08:28N 54°51' W 005°48'4 8.0
2017-Oct-12 08:00N 54°53' W 005°43'1020.0
2017-Oct-12 07:30N 54°58' W 005°27'918.6
2017-Oct-12 07:00N 55°01' W 005°12'713.6
2017-Oct-12 06:30N 54°58' W 005°02'0 0.8
2017-Oct-12 05:57N 54°58' W 005°01'0 0.0
2017-Oct-12 05:30N 54°58' W 005°01'0 0.0
2017-Oct-12 05:00N 54°58' W 005°01'510.8
2017-Oct-12 04:30N 55°02' W 005°08'918.0
2017-Oct-12 04:00N 54°58' W 005°22'918.1
2017-Oct-12 03:30N 54°54' W 005°36'714.7
2017-Oct-12 03:00N 54°51' W 005°48'0 0.1
2017-Oct-12 02:29N 54°51' W 005°48'0 0.0
2017-Oct-12 01:59N 54°51' W 005°48'0 0.0
2017-Oct-12 01:29N 54°51' W 005°48'0 0.0
2017-Oct-12 01:00N 54°51' W 005°48'5 9.8
2017-Oct-12 00:30N 54°54' W 005°41'1019.2
2017-Oct-12 00:00N 54°58' W 005°26'1019.1
2017-Oct-11 23:29N 55°02' W 005°09'613.2
2017-Oct-11 23:00N 54°58' W 005°01'0 0.0
2017-Oct-11 22:27N 54°58' W 005°01'0 0.0
2017-Oct-11 22:00N 54°58' W 005°01'0 0.0
2017-Oct-11 21:30N 54°58' W 005°01'0 0.1
2017-Oct-11 21:01N 54°58' W 005°01'510.2
2017-Oct-11 20:30N 55°01' W 005°07'1019.0
2017-Oct-11 20:00N 54°58' W 005°22'1020.2
2017-Oct-11 19:30N 54°54' W 005°38'612.3
2017-Oct-11 19:00N 54°51' W 005°48'0 0.0
2017-Oct-11 18:30N 54°51' W 005°48'0 0.0
2017-Oct-11 18:00N 54°51' W 005°48'0 0.0
2017-Oct-11 17:30N 54°51' W 005°48'611.6
2017-Oct-11 17:01N 54°54' W 005°39'15 0.9
2017-Oct-11 00:00N 54°60' W 005°15'1121.3
2017-Oct-10 23:30N 54°55' W 005°32'1020.0
2017-Oct-10 23:01N 54°51' W 005°48'0 0.2
2017-Oct-10 22:16N 54°51' W 005°48'0 0.0
2017-Oct-10 21:58N 54°51' W 005°48'0 0.0
2017-Oct-10 21:22N 54°51' W 005°48'0 0.0
2017-Oct-10 20:58N 54°51' W 005°48'511.7
2017-Oct-10 20:30N 54°54' W 005°40'1019.4
2017-Oct-10 20:00N 54°58' W 005°25'  
Track history (hours):
 
Tides and Currents Weather Stations Pressure Air Temp Water Temp Dewpoint Dewpoint Depression Visibility Wind Speed Wind Dir Waves Ship Positions

European Highlander

Operator: P&O Irish Sea Ltd

Last reported at 2017-Oct-20 19:31 UTC. Time now 2017-Oct-20 19:51 UTC.
Position N 55°01' W 005°13'.

Length 161 m; draft 5.4 m.

Type: Passenger vessel. MMSI: 311404000.

Date/timePositionNaut miles runAvg speedWind from/ knotsBaromVisibWave heightAir tempDewpointWater temp
2017-Oct-20 19:31N 55°01' W 005°13'612.5
2017-Oct-20 19:00N 54°59' W 005°02'1 2.3
2017-Oct-20 18:28N 54°58' W 005°01'0 0.0
2017-Oct-20 17:58N 54°58' W 005°01'0 0.0
2017-Oct-20 17:28N 54°58' W 005°01'5 8.6
2017-Oct-20 16:54N 55°02' W 005°06'819.6
2017-Oct-20 16:31N 54°59' W 005°18'1020.9
2017-Oct-20 16:01N 54°55' W 005°35'816.2
2017-Oct-20 15:31N 54°51' W 005°48'0 0.2
2017-Oct-20 15:00N 54°51' W 005°48'0 0.0
2017-Oct-20 14:28N 54°51' W 005°48'1515.2
2017-Oct-20 13:31N 54°58' W 005°26'917.5
2017-Oct-20 13:01N 55°01' W 005°11'713.2
2017-Oct-20 12:29N 54°58' W 005°01'0 0.0
2017-Oct-20 12:00N 54°58' W 005°01'0 0.0
2017-Oct-20 11:30N 54°58' W 005°01'5 9.7
2017-Oct-20 11:00N 55°01' W 005°07'917.9
2017-Oct-20 10:30N 54°58' W 005°21'918.1
2017-Oct-20 10:00N 54°54' W 005°35'815.9
2017-Oct-20 09:30N 54°51' W 005°48'0 0.1
2017-Oct-20 08:55N 54°51' W 005°48'0 0.0
2017-Oct-20 08:30N 54°51' W 005°48'612.9
2017-Oct-20 08:01N 54°54' W 005°38'815.7
2017-Oct-20 07:31N 54°58' W 005°26'816.4
2017-Oct-20 07:00N 55°01' W 005°13'713.4
2017-Oct-20 06:30N 54°59' W 005°02'1 2.6
2017-Oct-20 05:58N 54°58' W 005°01'0 0.0
2017-Oct-20 05:25N 54°58' W 005°01'0 0.0
2017-Oct-20 04:57N 54°58' W 005°01'5 9.4
2017-Oct-20 04:26N 55°02' W 005°06'717.6
2017-Oct-20 04:01N 54°59' W 005°18'918.3
2017-Oct-20 03:31N 54°55' W 005°33'917.7
2017-Oct-20 03:00N 54°52' W 005°47'1 1.9
2017-Oct-20 02:28N 54°51' W 005°48'0 0.0
2017-Oct-20 01:58N 54°51' W 005°48'0 0.0
2017-Oct-20 01:28N 54°51' W 005°48'0 0.0
2017-Oct-20 00:58N 54°51' W 005°48'4 8.8
2017-Oct-20 00:30N 54°54' W 005°43'917.7
2017-Oct-20 00:00N 54°57' W 005°29'917.5
2017-Oct-19 23:30N 55°01' W 005°15'714.1
2017-Oct-19 23:00N 54°59' W 005°03'2 2.0
2017-Oct-19 22:11N 54°58' W 005°01'0 0.0
2017-Oct-19 21:41N 54°58' W 005°01'0 0.0
2017-Oct-19 21:17N 54°58' W 005°01'0 0.0
2017-Oct-19 21:00N 54°58' W 005°01'5 9.4
2017-Oct-19 20:28N 55°01' W 005°06'817.0
2017-Oct-19 20:00N 54°59' W 005°19'918.0
2017-Oct-19 19:30N 54°55' W 005°34'917.6
2017-Oct-19 19:00N 54°51' W 005°48'1 1.4
2017-Oct-19 18:30N 54°51' W 005°48'0 0.0
2017-Oct-19 18:00N 54°51' W 005°48'0 0.0
2017-Oct-19 17:30N 54°51' W 005°48'2 4.2
2017-Oct-19 17:00N 54°52' W 005°45'1020.0
2017-Oct-19 16:30N 54°57' W 005°30'1020.4
2017-Oct-19 16:00N 55°01' W 005°14'815.6
2017-Oct-19 15:30N 54°58' W 005°01'0 0.4
2017-Oct-19 15:00N 54°58' W 005°01'0 0.0
2017-Oct-19 14:30N 54°58' W 005°01'5 9.6
2017-Oct-19 14:00N 55°02' W 005°06'1019.8
2017-Oct-19 13:30N 54°58' W 005°22'816.3
2017-Oct-19 13:00N 54°55' W 005°35'816.0
2017-Oct-19 12:30N 54°51' W 005°48'1 1.1
2017-Oct-19 12:00N 54°51' W 005°48'0 0.0
2017-Oct-19 11:30N 54°51' W 005°48'4 7.7
2017-Oct-19 11:00N 54°53' W 005°42'817.0
2017-Oct-19 10:30N 54°57' W 005°29'816.7
2017-Oct-19 10:00N 55°01' W 005°16'714.5
2017-Oct-19 09:30N 54°59' W 005°03'2 3.7
2017-Oct-19 08:54N 54°58' W 005°01'0 0.0
2017-Oct-19 08:30N 54°58' W 005°01'5 8.5
2017-Oct-19 07:55N 55°01' W 005°07'716.6
2017-Oct-19 07:30N 54°59' W 005°18'918.0
2017-Oct-19 07:00N 54°55' W 005°32'918.6
2017-Oct-19 06:31N 54°52' W 005°47'1 2.3
2017-Oct-19 05:58N 54°51' W 005°48'0 0.0
2017-Oct-19 05:28N 54°51' W 005°48'0 0.0
2017-Oct-19 05:00N 54°51' W 005°48'5 9.5
2017-Oct-19 04:30N 54°53' W 005°41'1019.7
2017-Oct-19 04:00N 54°58' W 005°26'1020.0
2017-Oct-19 03:30N 55°02' W 005°10'612.6
2017-Oct-19 03:00N 54°58' W 005°01'0 0.0
2017-Oct-19 02:24N 54°58' W 005°01'0 0.0
2017-Oct-19 01:57N 54°58' W 005°01'0 0.0
2017-Oct-19 01:27N 54°58' W 005°01'0 0.0
2017-Oct-19 01:00N 54°58' W 005°01'5 8.6
2017-Oct-19 00:25N 55°02' W 005°06'820.3
2017-Oct-19 00:00N 54°58' W 005°20'1019.8
2017-Oct-18 23:30N 54°54' W 005°36'815.3
2017-Oct-18 23:00N 54°51' W 005°48'0 0.2
2017-Oct-18 22:30N 54°51' W 005°48'0 0.0
2017-Oct-18 22:00N 54°51' W 005°48'0 0.0
2017-Oct-18 21:30N 54°51' W 005°48'0 0.1
2017-Oct-18 21:00N 54°51' W 005°48'713.9
2017-Oct-18 20:30N 54°55' W 005°37'917.7
2017-Oct-18 20:00N 54°58' W 005°24'918.4
2017-Oct-18 19:30N 55°02' W 005°09'611.6
2017-Oct-18 19:00N 54°58' W 005°01'0 0.0
2017-Oct-18 18:30N 54°58' W 005°01'0 0.0
2017-Oct-18 18:00N 54°58' W 005°01'0 0.0
2017-Oct-18 17:30N 54°58' W 005°01'5 9.4
2017-Oct-18 16:59N 55°01' W 005°07'919.4
2017-Oct-18 16:30N 54°58' W 005°21'1020.6
2017-Oct-18 16:00N 54°54' W 005°38'713.3
2017-Oct-18 15:30N 54°51' W 005°48'0 0.0
2017-Oct-18 15:00N 54°51' W 005°48'5 4.8
2017-Oct-18 14:01N 54°54' W 005°41'917.6
2017-Oct-18 13:31N 54°57' W 005°27'816.9
2017-Oct-18 13:01N 55°01' W 005°14'714.6
2017-Oct-18 12:30N 54°58' W 005°02'1 1.9
2017-Oct-18 12:00N 54°58' W 005°01'0 0.0
2017-Oct-18 11:30N 54°58' W 005°01'611.3
2017-Oct-18 11:00N 55°01' W 005°08'918.2
2017-Oct-18 10:30N 54°58' W 005°22'1017.5
2017-Oct-18 09:58N 54°54' W 005°38'714.3
2017-Oct-18 09:31N 54°51' W 005°48'0 0.1
2017-Oct-18 08:59N 54°51' W 005°48'0 0.0
2017-Oct-18 08:30N 54°51' W 005°48'612.1
2017-Oct-18 08:00N 54°54' W 005°39'1121.5
2017-Oct-18 07:30N 54°59' W 005°22'1117.1
2017-Oct-18 06:52N 54°59' W 005°03'2 3.6
2017-Oct-18 06:19N 54°58' W 005°01'0 0.0
2017-Oct-18 05:58N 54°58' W 005°01'0 0.0
2017-Oct-18 05:28N 54°58' W 005°01'0 0.0
2017-Oct-18 04:58N 54°58' W 005°01'5 7.8
2017-Oct-18 04:20N 55°01' W 005°06'619.0
2017-Oct-18 04:01N 54°60' W 005°17'1121.9
2017-Oct-18 03:30N 54°55' W 005°34'918.0
2017-Oct-18 03:00N 54°51' W 005°48'0 0.2
2017-Oct-18 02:29N 54°51' W 005°48'0 0.0
2017-Oct-18 01:59N 54°51' W 005°48'0 0.0
2017-Oct-18 01:29N 54°51' W 005°48'0 0.0
2017-Oct-18 00:59N 54°51' W 005°48'5 9.6
2017-Oct-18 00:30N 54°54' W 005°41'917.9
2017-Oct-18 00:00N 54°58' W 005°28'917.2
2017-Oct-17 23:30N 55°01' W 005°14'713.8
2017-Oct-17 23:00N 54°59' W 005°02'1 2.4
2017-Oct-17 22:27N 54°58' W 005°01'0 0.0
2017-Oct-17 21:57N 54°58' W 005°01'0 0.0
2017-Oct-17 21:15N 54°58' W 005°01'0 0.0
2017-Oct-17 20:48N 54°58' W 005°01'511.1
2017-Oct-17 20:22N 55°01' W 005°06'719.3
2017-Oct-17 20:01N 54°59' W 005°17'1020.4
2017-Oct-17 19:31N 54°55' W 005°34'917.5
2017-Oct-17 19:00N 54°51' W 005°48'0 0.7
2017-Oct-17 18:28N 54°51' W 005°48'0 0.0
2017-Oct-17 17:58N 54°51' W 005°48'0 0.0
2017-Oct-17 17:29N 54°51' W 005°48'510.0
2017-Oct-17 17:01N 54°53' W 005°41'1019.5
2017-Oct-17 16:31N 54°58' W 005°26'1019.2
2017-Oct-17 16:01N 55°01' W 005°10'612.6
2017-Oct-17 15:30N 54°58' W 005°01'0 0.2
2017-Oct-17 14:56N 54°58' W 005°01'0 0.0
2017-Oct-17 14:08N 54°58' W 005°01'0 0.0
2017-Oct-17 13:59N 54°58' W 005°01'1 3.0
2017-Oct-17 13:30N 54°59' W 005°03'714.8
2017-Oct-17 13:00N 54°60' W 005°15'1121.5
2017-Oct-17 12:30N 54°55' W 005°32'1019.2
2017-Oct-17 12:00N 54°51' W 005°48'0 0.4
2017-Oct-17 11:25N 54°51' W 005°48'0 0.0
2017-Oct-17 10:58N 54°51' W 005°48'0 0.0
2017-Oct-17 10:25N 54°51' W 005°48'0 0.1
2017-Oct-17 10:00N 54°51' W 005°48'815.3
2017-Oct-17 09:31N 54°55' W 005°37'1120.2
2017-Oct-17 08:57N 55°01' W 005°20'1016.8
2017-Oct-17 08:21N 54°59' W 005°03'2 1.5
2017-Oct-17 07:09N 54°58' W 005°01'0 0.0
2017-Oct-17 06:57N 54°58' W 005°01'0 0.0
2017-Oct-17 06:30N 54°58' W 005°01'0 0.0
2017-Oct-17 05:57N 54°58' W 005°01'0 0.4
2017-Oct-17 05:30N 54°58' W 005°01'816.4
2017-Oct-17 05:01N 55°03' W 005°11'918.8
2017-Oct-17 04:30N 55°01' W 005°27'918.9
2017-Oct-17 04:00N 54°55' W 005°40'612.2
2017-Oct-17 03:30N 54°51' W 005°48'0 0.0
2017-Oct-17 02:58N 54°51' W 005°48'0 0.0
2017-Oct-17 02:25N 54°51' W 005°48'0 0.0
2017-Oct-17 01:55N 54°51' W 005°48'0 0.0
2017-Oct-17 01:28N 54°51' W 005°48'0 0.0
2017-Oct-17 00:58N 54°51' W 005°48'0 0.0
2017-Oct-17 00:28N 54°51' W 005°48'0 0.0
2017-Oct-16 23:58N 54°51' W 005°48'0 0.0
2017-Oct-16 23:28N 54°51' W 005°48'0 0.0
2017-Oct-16 22:58N 54°51' W 005°48'0 0.0
2017-Oct-16 22:28N 54°51' W 005°48'0 0.0
2017-Oct-16 21:58N 54°51' W 005°48'0 0.0
2017-Oct-16 21:28N 54°51' W 005°48'0 0.0
2017-Oct-16 20:58N 54°51' W 005°48'0 0.0
2017-Oct-16 20:28N 54°51' W 005°48'0 0.0
2017-Oct-16 19:58N 54°51' W 005°48'0 0.0
2017-Oct-16 19:28N 54°51' W 005°48'0 0.0
2017-Oct-16 18:58N 54°51' W 005°48'0 0.0
2017-Oct-16 18:28N 54°51' W 005°48'0 0.0
2017-Oct-16 17:58N 54°51' W 005°48'0 0.0
2017-Oct-16 17:04N 54°51' W 005°48'0 0.0
2017-Oct-16 16:58N 54°51' W 005°48'0 0.0
2017-Oct-16 16:28N 54°51' W 005°48'0 0.0
2017-Oct-16 15:58N 54°51' W 005°48'0 0.0
2017-Oct-16 15:28N 54°51' W 005°48'0 0.0
2017-Oct-16 14:49N 54°51' W 005°48'0 0.0
2017-Oct-16 13:53N 54°51' W 005°48'0 0.0
2017-Oct-16 13:30N 54°51' W 005°48'0 0.0
2017-Oct-16 13:00N 54°51' W 005°48'0 0.0
2017-Oct-16 12:30N 54°51' W 005°48'0 0.0
2017-Oct-16 12:00N 54°51' W 005°48'0 0.0
2017-Oct-16 11:30N 54°51' W 005°48'5 9.1
2017-Oct-16 11:01N 54°53' W 005°41'917.8
2017-Oct-16 10:30N 54°58' W 005°28'917.9
2017-Oct-16 10:00N 55°01' W 005°13'713.9
2017-Oct-16 09:30N 54°58' W 005°02'1 0.7
2017-Oct-16 08:24N 54°58' W 005°01'512.7
2017-Oct-16 08:00N 55°02' W 005°07'1019.2
2017-Oct-16 07:30N 54°58' W 005°22'917.2
2017-Oct-16 07:00N 54°54' W 005°36'815.4
2017-Oct-16 06:30N 54°51' W 005°48'0 0.2
2017-Oct-16 06:00N 54°51' W 005°48'0 0.0
2017-Oct-16 05:30N 54°51' W 005°48'0 0.0
2017-Oct-16 05:01N 54°51' W 005°48'4 7.1
2017-Oct-16 04:30N 54°53' W 005°43'917.7
2017-Oct-16 04:01N 54°57' W 005°29'917.9
2017-Oct-16 03:31N 55°00' W 005°15'713.7
2017-Oct-16 03:00N 54°59' W 005°03'2 3.1
2017-Oct-16 02:25N 54°58' W 005°01'0 0.0
2017-Oct-16 01:58N 54°58' W 005°01'0 0.0
2017-Oct-16 01:28N 54°58' W 005°01'0 0.0
2017-Oct-16 00:58N 54°58' W 005°01'0 0.0
2017-Oct-16 00:13N 54°58' W 005°01'0 0.4
2017-Oct-16 00:00N 54°58' W 005°01'612.5
2017-Oct-15 23:30N 55°01' W 005°10'1020.3
2017-Oct-15 23:01N 54°57' W 005°26'917.8
2017-Oct-15 22:30N 54°53' W 005°40'510.3
2017-Oct-15 22:00N 54°51' W 005°48'0 0.0
2017-Oct-15 21:31N 54°51' W 005°48'0 0.0
2017-Oct-15 21:00N 54°51' W 005°48'3 6.5
2017-Oct-15 20:30N 54°53' W 005°43'918.3
2017-Oct-15 20:00N 54°57' W 005°29'918.0
2017-Oct-15 19:30N 55°01' W 005°15'713.4
2017-Oct-15 19:00N 54°59' W 005°03'2 3.2
2017-Oct-15 18:23N 54°58' W 005°01'0 0.0
2017-Oct-15 17:27N 54°58' W 005°01'5 9.7
2017-Oct-15 16:57N 55°01' W 005°06'818.8
2017-Oct-15 16:30N 54°59' W 005°20'1019.8
2017-Oct-15 16:00N 54°55' W 005°36'815.8
2017-Oct-15 15:31N 54°51' W 005°48'0 0.1
2017-Oct-15 14:59N 54°51' W 005°48'0 0.0
2017-Oct-15 13:59N 54°51' W 005°48'4 9.1
2017-Oct-15 13:30N 54°53' W 005°42'917.2
2017-Oct-15 13:01N 54°58' W 005°29'817.0
2017-Oct-15 12:31N 55°01' W 005°15'714.3
2017-Oct-15 12:01N 54°59' W 005°03'2 3.4
2017-Oct-15 11:25N 54°58' W 005°01'0 0.0
2017-Oct-15 10:58N 54°58' W 005°01'0 0.0
2017-Oct-15 10:22N 54°58' W 005°01'0 0.0
2017-Oct-15 09:58N 54°58' W 005°01'0 0.0
2017-Oct-15 09:28N 54°58' W 005°01'0 0.0
2017-Oct-15 08:58N 54°58' W 005°01'0 0.0
2017-Oct-15 08:26N 54°58' W 005°01'5 9.2
2017-Oct-15 07:54N 55°02' W 005°06'819.9
2017-Oct-15 07:30N 54°59' W 005°19'1020.2
2017-Oct-15 07:00N 54°54' W 005°35'816.6
2017-Oct-15 06:30N 54°51' W 005°48'0 0.1
2017-Oct-15 05:58N 54°51' W 005°48'0 0.0
2017-Oct-15 05:28N 54°51' W 005°48'0 0.0
2017-Oct-15 04:58N 54°51' W 005°48'0 0.0
2017-Oct-15 04:28N 54°51' W 005°48'0 0.0
2017-Oct-15 03:55N 54°51' W 005°48'0 0.0
2017-Oct-15 03:28N 54°51' W 005°48'0 0.0
2017-Oct-15 02:58N 54°51' W 005°48'0 0.0
2017-Oct-15 02:28N 54°51' W 005°48'0 0.0
2017-Oct-15 01:58N 54°51' W 005°48'0 0.0
2017-Oct-15 01:28N 54°51' W 005°48'0 0.0
2017-Oct-15 00:58N 54°51' W 005°48'0 0.0
2017-Oct-15 00:28N 54°51' W 005°48'0 0.0
2017-Oct-14 23:55N 54°51' W 005°48'0 0.0
2017-Oct-14 23:28N 54°51' W 005°48'0 0.0
2017-Oct-14 22:58N 54°51' W 005°48'0 0.0
2017-Oct-14 22:28N 54°51' W 005°48'0 0.0
2017-Oct-14 21:58N 54°51' W 005°48'0 0.0
2017-Oct-14 21:28N 54°51' W 005°48'0 0.0
2017-Oct-14 20:58N 54°51' W 005°48'4 8.3
2017-Oct-14 20:30N 54°53' W 005°43'917.1
2017-Oct-14 20:00N 54°57' W 005°29'816.8
2017-Oct-14 19:31N 55°00' W 005°16'814.1
2017-Oct-14 18:58N 54°59' W 005°03'2 3.1
2017-Oct-14 18:26N 54°58' W 005°01'0 0.0
2017-Oct-14 17:59N 54°58' W 005°01'0 0.0
2017-Oct-14 17:29N 54°58' W 005°01'5 9.7
2017-Oct-14 16:58N 55°02' W 005°06'817.2
2017-Oct-14 16:30N 54°58' W 005°19'918.1
2017-Oct-14 16:00N 54°54' W 005°33'917.6
2017-Oct-14 15:30N 54°51' W 005°48'0 0.8
2017-Oct-14 14:59N 54°51' W 005°48'0 0.0
2017-Oct-14 14:30N 54°51' W 005°48'612.7
2017-Oct-14 14:00N 54°54' W 005°38'917.7
2017-Oct-14 13:30N 54°58' W 005°25'917.8
2017-Oct-14 13:00N 55°01' W 005°10'612.2
2017-Oct-14 12:31N 54°58' W 005°01'0 0.8
2017-Oct-14 12:00N 54°58' W 005°01'0 0.0
2017-Oct-14 11:31N 54°58' W 005°01'5 9.0
2017-Oct-14 10:59N 55°01' W 005°06'918.1
2017-Oct-14 10:31N 54°58' W 005°20'918.2
2017-Oct-14 10:00N 54°54' W 005°34'817.0
2017-Oct-14 09:30N 54°51' W 005°48'0 0.2
2017-Oct-14 08:51N 54°51' W 005°48'0 0.0
2017-Oct-14 08:30N 54°51' W 005°48'611.2
2017-Oct-14 08:00N 54°54' W 005°40'917.8
2017-Oct-14 07:30N 54°58' W 005°26'917.4
2017-Oct-14 07:00N 55°01' W 005°12'713.9
2017-Oct-14 06:30N 54°58' W 005°01'0 0.5
2017-Oct-14 05:59N 54°58' W 005°01'0 0.0
2017-Oct-14 05:29N 54°58' W 005°01'0 0.1
2017-Oct-14 05:00N 54°58' W 005°01'612.0
2017-Oct-14 04:31N 55°01' W 005°09'917.6
2017-Oct-14 04:00N 54°58' W 005°23'918.6
2017-Oct-14 03:30N 54°54' W 005°37'713.3
2017-Oct-14 03:01N 54°51' W 005°48'0 0.0
2017-Oct-14 02:28N 54°51' W 005°48'0 0.0
2017-Oct-14 01:58N 54°51' W 005°48'0 0.0
2017-Oct-14 01:25N 54°51' W 005°48'0 0.0
2017-Oct-14 00:59N 54°51' W 005°48'4 8.6
2017-Oct-14 00:31N 54°53' W 005°42'917.4
2017-Oct-14 00:00N 54°57' W 005°29'917.2
2017-Oct-13 23:30N 55°01' W 005°15'713.9
2017-Oct-13 23:00N 54°59' W 005°03'2 3.4
2017-Oct-13 22:30N 54°58' W 005°01'0 0.0
2017-Oct-13 22:00N 54°58' W 005°01'0 0.0
2017-Oct-13 21:30N 54°58' W 005°01'0 0.0
2017-Oct-13 20:55N 54°58' W 005°01'5 9.3
2017-Oct-13 20:23N 55°02' W 005°06'718.2
2017-Oct-13 20:00N 54°59' W 005°18'917.9
2017-Oct-13 19:30N 54°55' W 005°32'918.1
2017-Oct-13 19:00N 54°52' W 005°47'1 2.7
2017-Oct-13 18:28N 54°51' W 005°48'0 0.0
2017-Oct-13 17:58N 54°51' W 005°48'0 0.0
2017-Oct-13 17:28N 54°51' W 005°48'1 3.2
2017-Oct-13 17:00N 54°52' W 005°47'1019.5
2017-Oct-13 16:31N 54°56' W 005°31'1019.7
2017-Oct-13 16:01N 55°00' W 005°16'815.1
2017-Oct-13 15:30N 54°59' W 005°03'2 3.1
2017-Oct-13 14:58N 54°58' W 005°01'0 0.0
2017-Oct-13 14:28N 54°58' W 005°01'1 2.3
2017-Oct-13 14:01N 54°59' W 005°02'714.1
2017-Oct-13 13:30N 54°60' W 005°14'1020.3
2017-Oct-13 13:00N 54°56' W 005°30'1020.8
2017-Oct-13 12:30N 54°52' W 005°47'1 2.0
2017-Oct-13 11:58N 54°51' W 005°48'0 0.0
2017-Oct-13 11:28N 54°51' W 005°48'4 9.5
2017-Oct-13 11:00N 54°53' W 005°41'1019.4
2017-Oct-13 10:30N 54°58' W 005°26'1019.2
2017-Oct-13 10:00N 55°01' W 005°11'713.8
2017-Oct-13 09:30N 54°58' W 005°01'0 0.0
2017-Oct-13 09:00N 54°58' W 005°01'0 0.0
2017-Oct-13 08:26N 54°58' W 005°01'510.4
2017-Oct-13 07:56N 55°02' W 005°07'818.5
2017-Oct-13 07:30N 54°59' W 005°20'917.5
2017-Oct-13 07:00N 54°55' W 005°33'917.4
2017-Oct-13 06:30N 54°52' W 005°47'1 1.8
2017-Oct-13 05:59N 54°51' W 005°48'0 0.0
2017-Oct-13 05:29N 54°51' W 005°48'0 0.0
2017-Oct-13 05:00N 54°51' W 005°48'510.7
2017-Oct-13 04:30N 54°54' W 005°40'918.8
2017-Oct-13 04:00N 54°58' W 005°25'1018.9
2017-Oct-13 03:30N 55°02' W 005°10'712.6
2017-Oct-13 02:59N 54°58' W 005°01'0 0.0
2017-Oct-13 02:12N 54°58' W 005°01'0 0.0
2017-Oct-13 02:00N 54°58' W 005°01'0 0.0
2017-Oct-13 01:30N 54°58' W 005°01'0 0.0
2017-Oct-13 01:00N 54°58' W 005°01'5 8.6
2017-Oct-13 00:26N 55°02' W 005°07'717.1
2017-Oct-13 00:00N 54°59' W 005°18'1020.4
2017-Oct-12 23:30N 54°55' W 005°34'917.1
2017-Oct-12 23:01N 54°51' W 005°48'0 0.2
2017-Oct-12 22:30N 54°51' W 005°48'0 0.0
2017-Oct-12 22:00N 54°51' W 005°48'0 0.0
2017-Oct-12 21:30N 54°51' W 005°48'0 0.3
2017-Oct-12 21:01N 54°51' W 005°48'715.0
2017-Oct-12 20:31N 54°56' W 005°38'815.1
2017-Oct-12 20:00N 54°59' W 005°26'816.3
2017-Oct-12 19:30N 55°01' W 005°12'612.9
2017-Oct-12 19:00N 54°58' W 005°02'1 1.8
2017-Oct-12 18:29N 54°58' W 005°01'0 0.0
2017-Oct-12 17:41N 54°58' W 005°01'0 0.0
2017-Oct-12 17:25N 54°58' W 005°01'510.9
2017-Oct-12 16:55N 55°02' W 005°08'718.1
2017-Oct-12 16:31N 54°59' W 005°19'918.0
2017-Oct-12 16:00N 54°55' W 005°34'917.5
2017-Oct-12 15:30N 54°51' W 005°48'0 0.7
2017-Oct-12 14:59N 54°51' W 005°48'0 0.0
2017-Oct-12 14:30N 54°51' W 005°48'510.7
2017-Oct-12 14:00N 54°54' W 005°40'917.3
2017-Oct-12 13:30N 54°59' W 005°28'816.3
2017-Oct-12 13:00N 55°01' W 005°14'714.3
2017-Oct-12 12:30N 54°59' W 005°03'1 3.0
2017-Oct-12 12:00N 54°58' W 005°01'0 0.0
2017-Oct-12 11:30N 54°58' W 005°01'510.4
2017-Oct-12 11:00N 55°02' W 005°07'918.0
2017-Oct-12 10:30N 54°58' W 005°21'918.8
2017-Oct-12 10:00N 54°54' W 005°37'714.3
2017-Oct-12 09:30N 54°51' W 005°48'0 0.1
2017-Oct-12 08:55N 54°51' W 005°48'0 0.0
2017-Oct-12 08:28N 54°51' W 005°48'4 8.0
2017-Oct-12 08:00N 54°53' W 005°43'1020.0
2017-Oct-12 07:30N 54°58' W 005°27'918.6
2017-Oct-12 07:00N 55°01' W 005°12'713.6
2017-Oct-12 06:30N 54°58' W 005°02'0 0.8
2017-Oct-12 05:57N 54°58' W 005°01'0 0.0
2017-Oct-12 05:30N 54°58' W 005°01'0 0.0
2017-Oct-12 05:00N 54°58' W 005°01'510.8
2017-Oct-12 04:30N 55°02' W 005°08'918.0
2017-Oct-12 04:00N 54°58' W 005°22'918.1
2017-Oct-12 03:30N 54°54' W 005°36'714.7
2017-Oct-12 03:00N 54°51' W 005°48'0 0.1
2017-Oct-12 02:29N 54°51' W 005°48'0 0.0
2017-Oct-12 01:59N 54°51' W 005°48'0 0.0
2017-Oct-12 01:29N 54°51' W 005°48'0 0.0
2017-Oct-12 01:00N 54°51' W 005°48'5 9.8
2017-Oct-12 00:30N 54°54' W 005°41'1019.2
2017-Oct-12 00:00N 54°58' W 005°26'1019.1
2017-Oct-11 23:29N 55°02' W 005°09'613.2
2017-Oct-11 23:00N 54°58' W 005°01'0 0.0
2017-Oct-11 22:27N 54°58' W 005°01'0 0.0
2017-Oct-11 22:00N 54°58' W 005°01'0 0.0
2017-Oct-11 21:30N 54°58' W 005°01'0 0.1
2017-Oct-11 21:01N 54°58' W 005°01'510.2
2017-Oct-11 20:30N 55°01' W 005°07'1019.0
2017-Oct-11 20:00N 54°58' W 005°22'1020.2
2017-Oct-11 19:30N 54°54' W 005°38'612.3
2017-Oct-11 19:00N 54°51' W 005°48'0 0.0
2017-Oct-11 18:30N 54°51' W 005°48'0 0.0
2017-Oct-11 18:00N 54°51' W 005°48'0 0.0
2017-Oct-11 17:30N 54°51' W 005°48'611.6
2017-Oct-11 17:01N 54°54' W 005°39'15 0.9
2017-Oct-11 00:00N 54°60' W 005°15'1121.3
2017-Oct-10 23:30N 54°55' W 005°32'1020.0
2017-Oct-10 23:01N 54°51' W 005°48'0 0.2
2017-Oct-10 22:16N 54°51' W 005°48'0 0.0
2017-Oct-10 21:58N 54°51' W 005°48'0 0.0
2017-Oct-10 21:22N 54°51' W 005°48'0 0.0
2017-Oct-10 20:58N 54°51' W 005°48'511.7
2017-Oct-10 20:30N 54°54' W 005°40'1019.4
2017-Oct-10 20:00N 54°58' W 005°25'  

Dump ship's entire track history